Time;durP1;ratioP1;P1;durP2;ratioP2;P2;SDS_P1;SDS_P2;PMS_P1;PMS_P2;Temp;Humidity;BMP_temperature;BMP_pressure;BME280_temperature;BME280_humidity;BME280_pressure;Samples;Min_cycle;Max_cycle;Signal;HPM_P1;HPM_P2
2022/06/11 00:01:37;;;;;;;17.98;11.27;;;16.60;99.90;;;;;;5067673;28;20074;-69
2022/06/11 00:04:10;;;;;;;17.25;11.13;;;16.70;99.90;;;;;;5059750;28;20043;-67
2022/06/11 00:06:43;;;;;;;16.13;10.90;;;16.80;99.90;;;;;;5063329;28;20097;-67
2022/06/11 00:09:10;;;;;;;15.95;10.60;;;16.80;99.90;;;;;;5080825;28;20076;-68
2022/06/11 00:11:36;;;;;;;17.15;10.73;;;16.90;99.90;;;;;;5075031;28;20808;-68
2022/06/11 00:14:03;;;;;;;17.75;10.55;;;16.80;99.90;;;;;;5067048;28;20051;-68
2022/06/11 00:16:29;;;;;;;16.30;10.13;;;16.80;99.90;;;;;;5078798;28;20059;-68
2022/06/11 00:18:57;;;;;;;13.00;8.55;;;16.90;99.90;;;;;;5079149;28;20039;-69
2022/06/11 00:21:26;;;;;;;14.98;9.13;;;16.90;99.90;;;;;;5061869;28;20067;-70
2022/06/11 00:23:52;;;;;;;14.38;7.30;;;16.90;99.90;;;;;;5075009;28;20069;-73
2022/06/11 00:26:18;;;;;;;11.32;6.32;;;17.00;99.90;;;;;;5052564;28;20384;-68
2022/06/11 00:28:44;;;;;;;11.30;5.40;;;17.00;99.90;;;;;;5062740;28;20105;-70
2022/06/11 00:31:11;;;;;;;10.50;5.05;;;17.10;99.90;;;;;;5075843;28;20044;-69
2022/06/11 00:33:38;;;;;;;9.80;4.80;;;17.20;99.90;;;;;;5073486;28;20484;-70
2022/06/11 00:36:06;;;;;;;12.63;4.88;;;17.20;99.90;;;;;;5083105;28;20451;-69
2022/06/11 00:38:32;;;;;;;10.13;5.07;;;17.20;99.90;;;;;;5080941;28;20056;-70
2022/06/11 00:40:58;;;;;;;10.40;5.00;;;17.20;99.90;;;;;;5048314;28;20044;-70
2022/06/11 00:43:27;;;;;;;8.90;4.90;;;17.30;99.90;;;;;;5074636;28;20135;-69
2022/06/11 00:46:19;;;;;;;13.07;4.97;;;17.20;99.90;;;;;;5066140;28;20595;-69
2022/06/11 00:48:45;;;;;;;11.75;5.50;;;17.10;99.90;;;;;;5011272;28;20055;-69
2022/06/11 00:51:16;;;;;;;11.18;5.40;;;17.10;99.90;;;;;;5055608;28;20525;-69
2022/06/11 00:54:00;;;;;;;8.70;3.70;;;17.10;99.90;;;;;;5067366;28;20054;-69
2022/06/11 00:56:44;;;;;;;12.30;4.47;;;17.10;99.90;;;;;;5051169;28;20489;-70
2022/06/11 00:59:15;;;;;;;7.00;3.63;;;17.00;99.90;;;;;;5041653;28;20040;-69
2022/06/11 01:01:42;;;;;;;7.30;3.55;;;16.90;99.90;;;;;;5053408;28;20048;-69
2022/06/11 01:04:29;;;;;;;7.10;3.58;;;16.90;99.90;;;;;;5068045;28;20040;-69
2022/06/11 01:07:09;;;;;;;9.45;3.90;;;16.80;99.90;;;;;;5070500;28;20079;-69
2022/06/11 01:09:46;;;;;;;6.90;2.58;;;16.70;99.90;;;;;;5068663;28;20044;-69
2022/06/11 01:12:33;;;;;;;7.90;3.30;;;16.70;99.90;;;;;;5040090;28;20041;-69
2022/06/11 01:15:08;;;;;;;7.75;2.80;;;16.60;99.90;;;;;;5061680;28;20055;-69
2022/06/11 01:17:56;;;;;;;8.38;2.60;;;16.50;99.90;;;;;;5070366;28;20040;-69
2022/06/11 01:20:29;;;;;;;5.05;2.50;;;16.50;99.90;;;;;;5070556;28;20099;-70
2022/06/11 01:23:17;;;;;;;7.38;2.10;;;16.40;99.90;;;;;;5045937;28;20102;-68
2022/06/11 01:25:58;;;;;;;5.60;2.45;;;16.40;99.90;;;;;;5066994;28;20462;-69
2022/06/11 01:28:49;;;;;;;6.30;2.60;;;16.20;99.90;;;;;;5068215;28;20107;-69
2022/06/11 01:31:35;;;;;;;6.03;2.40;;;16.10;99.90;;;;;;5069719;28;20081;-69
2022/06/11 01:34:07;;;;;;;8.43;2.10;;;16.10;99.90;;;;;;5052983;28;20040;-69
2022/06/11 01:36:38;;;;;;;6.72;2.20;;;16.00;99.90;;;;;;5046952;28;20040;-69
2022/06/11 01:39:13;;;;;;;7.93;2.25;;;15.90;99.90;;;;;;5051781;28;20113;-69
2022/06/11 01:42:03;;;;;;;7.20;2.20;;;15.90;99.90;;;;;;5048343;28;20043;-69
2022/06/11 01:44:39;;;;;;;9.65;1.98;;;15.80;99.90;;;;;;5070604;28;20052;-70
2022/06/11 01:47:06;;;;;;;7.60;2.38;;;15.80;99.90;;;;;;5047767;28;20037;-69
2022/06/11 01:49:37;;;;;;;6.60;2.00;;;15.70;99.90;;;;;;5064241;28;20489;-70
2022/06/11 01:52:31;;;;;;;6.30;1.85;;;15.70;99.90;;;;;;5070081;28;20056;-70
2022/06/11 01:55:06;;;;;;;8.63;2.10;;;15.80;99.90;;;;;;5068097;28;20178;-71
2022/06/11 01:58:05;;;;;;;7.80;2.38;;;15.80;99.90;;;;;;5050547;28;20056;-68
2022/06/11 02:00:42;;;;;;;9.70;2.25;;;15.80;99.90;;;;;;5055341;28;20139;-70
2022/06/11 02:03:36;;;;;;;9.02;2.63;;;15.80;99.90;;;;;;5067572;28;20040;-69
2022/06/11 02:06:33;;;;;;;5.82;1.83;;;15.70;99.90;;;;;;5052802;28;20052;-71
2022/06/11 02:09:24;;;;;;;8.60;2.13;;;15.70;99.90;;;;;;5051305;28;20037;-68
2022/06/11 02:12:31;;;;;;;5.47;1.90;;;15.60;99.90;;;;;;5070743;28;20142;-69
2022/06/11 02:15:07;;;;;;;7.78;2.28;;;15.50;99.90;;;;;;5067577;28;20117;-68
2022/06/11 02:17:37;;;;;;;4.15;2.08;;;15.50;99.90;;;;;;5068603;28;20072;-68
2022/06/11 02:20:17;;;;;;;7.95;1.75;;;15.40;99.90;;;;;;5072603;28;20044;-69
2022/06/11 02:23:14;;;;;;;6.15;1.70;;;15.30;99.90;;;;;;5075073;28;20039;-69
2022/06/11 02:25:50;;;;;;;11.25;2.00;;;15.20;99.90;;;;;;5070884;28;20110;-69
2022/06/11 02:28:24;;;;;;;5.63;2.22;;;15.20;99.90;;;;;;5073026;28;20040;-70
2022/06/11 02:30:52;;;;;;;7.68;2.05;;;15.20;99.90;;;;;;5072617;28;20040;-69
2022/06/11 02:33:21;;;;;;;7.95;2.15;;;15.10;99.90;;;;;;5076984;28;20040;-69
2022/06/11 02:35:50;;;;;;;8.43;2.20;;;15.10;99.90;;;;;;5066930;28;20132;-68
2022/06/11 02:38:21;;;;;;;6.30;2.30;;;15.00;99.90;;;;;;5063835;28;20067;-68
2022/06/11 02:40:51;;;;;;;6.67;2.03;;;14.90;99.90;;;;;;5050961;28;20044;-69
2022/06/11 02:43:18;;;;;;;6.22;2.63;;;14.90;99.90;;;;;;5075204;28;20048;-70
2022/06/11 02:45:44;;;;;;;9.82;2.30;;;14.80;99.90;;;;;;5067299;28;20036;-71
2022/06/11 02:48:11;;;;;;;8.27;2.65;;;14.80;99.90;;;;;;5077692;28;20481;-68
2022/06/11 02:50:38;;;;;;;7.57;2.50;;;14.70;99.90;;;;;;5072459;28;20060;-68
2022/06/11 02:53:06;;;;;;;7.18;2.53;;;14.70;99.90;;;;;;5055341;28;20384;-69
2022/06/11 02:55:34;;;;;;;10.52;2.47;;;14.60;99.90;;;;;;5077431;28;20047;-71
2022/06/11 02:58:02;;;;;;;7.82;2.70;;;14.50;99.90;;;;;;5075590;28;20044;-71
2022/06/11 03:00:32;;;;;;;11.63;2.72;;;14.60;99.90;;;;;;5056466;28;20040;-68
2022/06/11 03:02:59;;;;;;;7.32;2.60;;;14.60;99.90;;;;;;5071321;28;20044;-71
2022/06/11 03:05:28;;;;;;;7.13;2.78;;;14.60;99.90;;;;;;5069587;28;20465;-69
2022/06/11 03:07:55;;;;;;;9.90;3.30;;;14.70;99.90;;;;;;5077133;28;20460;-71
2022/06/11 03:10:24;;;;;;;9.57;3.35;;;14.70;99.90;;;;;;5077575;28;20117;-72
2022/06/11 03:12:50;;;;;;;11.98;3.17;;;14.80;99.90;;;;;;5057047;28;20044;-72
2022/06/11 03:15:18;;;;;;;9.55;2.95;;;14.80;99.90;;;;;;5076900;28;20116;-69
2022/06/11 03:17:45;;;;;;;15.23;3.72;;;14.70;99.90;;;;;;5071198;28;20493;-68
2022/06/11 03:20:13;;;;;;;12.52;4.15;;;14.70;99.90;;;;;;5062092;28;20036;-73
2022/06/11 03:22:40;;;;;;;10.70;4.28;;;14.60;99.90;;;;;;5074665;28;20048;-71
2022/06/11 03:25:06;;;;;;;10.55;3.90;;;14.60;99.90;;;;;;5071936;28;20072;-71
2022/06/11 03:27:32;;;;;;;10.98;4.00;;;14.60;99.90;;;;;;5070938;28;20046;-73
2022/06/11 03:29:58;;;;;;;12.07;3.70;;;14.50;99.90;;;;;;5075599;28;20515;-69
2022/06/11 03:32:24;;;;;;;9.52;3.63;;;14.60;99.90;;;;;;5072927;28;20424;-70
2022/06/11 03:34:50;;;;;;;11.48;3.80;;;14.50;99.90;;;;;;5083526;28;20055;-68
2022/06/11 03:37:16;;;;;;;17.05;4.90;;;14.40;99.90;;;;;;5077273;28;20124;-70
2022/06/11 03:39:42;;;;;;;15.73;5.07;;;14.40;99.90;;;;;;5076551;28;20063;-70
2022/06/11 03:42:09;;;;;;;16.98;5.95;;;14.40;99.90;;;;;;5057677;28;20093;-69
2022/06/11 03:44:35;;;;;;;15.93;6.00;;;14.40;99.90;;;;;;5078169;28;20048;-69
2022/06/11 03:47:02;;;;;;;12.70;5.20;;;14.60;99.90;;;;;;5074542;28;20472;-70
2022/06/11 03:49:28;;;;;;;11.43;4.75;;;14.70;99.90;;;;;;5074416;28;20052;-70
2022/06/11 03:51:54;;;;;;;11.48;4.70;;;14.90;99.90;;;;;;5077801;28;20040;-70
2022/06/11 03:54:20;;;;;;;13.13;5.10;;;14.90;99.90;;;;;;5072751;28;20072;-70
2022/06/11 03:56:48;;;;;;;11.23;4.43;;;14.90;99.90;;;;;;5047593;28;20061;-69
2022/06/11 03:59:15;;;;;;;12.88;4.68;;;15.00;99.90;;;;;;5070785;28;20473;-69
2022/06/11 04:01:43;;;;;;;11.80;4.07;;;15.00;99.90;;;;;;5078255;28;20051;-71
2022/06/11 04:04:11;;;;;;;10.13;4.32;;;15.10;99.90;;;;;;5057586;28;20053;-69
2022/06/11 04:06:44;;;;;;;10.45;3.97;;;15.20;99.90;;;;;;5059088;28;20037;-69
2022/06/11 04:09:17;;;;;;;9.45;3.90;;;15.20;99.90;;;;;;5076331;28;20186;-69
2022/06/11 04:11:44;;;;;;;13.50;3.70;;;15.30;99.90;;;;;;5077024;28;20043;-68
2022/06/11 04:14:10;;;;;;;11.93;3.70;;;15.30;99.90;;;;;;5075993;28;20048;-70
2022/06/11 04:16:44;;;;;;;13.27;4.15;;;15.30;99.90;;;;;;5053903;28;20049;-69
2022/06/11 04:19:17;;;;;;;12.80;3.95;;;15.40;99.90;;;;;;5075674;28;20121;-69
2022/06/11 04:21:43;;;;;;;10.70;3.63;;;15.50;99.90;;;;;;5061570;28;20040;-69
2022/06/11 04:24:10;;;;;;;9.70;3.85;;;15.60;99.90;;;;;;5080550;28;20179;-70
2022/06/11 04:26:41;;;;;;;8.98;3.22;;;15.70;99.90;;;;;;5053862;28;20046;-68
2022/06/11 04:29:10;;;;;;;13.02;3.75;;;15.70;99.90;;;;;;5075740;28;20044;-68
2022/06/11 04:31:37;;;;;;;10.80;4.05;;;15.80;99.90;;;;;;5073379;28;20095;-72
2022/06/11 04:34:04;;;;;;;11.68;4.00;;;15.70;99.90;;;;;;5058474;28;20040;-69
2022/06/11 04:36:33;;;;;;;11.65;4.38;;;15.60;99.90;;;;;;5061511;28;20051;-68
2022/06/11 04:38:59;;;;;;;14.43;4.40;;;15.60;99.90;;;;;;5055717;28;20041;-70
2022/06/11 04:41:25;;;;;;;12.32;4.30;;;15.70;99.90;;;;;;5066670;28;20041;-70
2022/06/11 04:43:51;;;;;;;11.95;4.20;;;15.70;99.90;;;;;;5079602;28;20040;-68
2022/06/11 04:46:18;;;;;;;10.52;4.25;;;15.70;99.90;;;;;;5076484;28;20408;-69
2022/06/11 04:48:44;;;;;;;11.75;4.07;;;15.70;99.90;;;;;;5073654;28;20043;-71
2022/06/11 04:51:11;;;;;;;12.07;4.75;;;15.70;99.90;;;;;;5053362;28;20049;-71
2022/06/11 04:53:37;;;;;;;14.77;5.05;;;15.80;99.90;;;;;;5065971;28;20052;-70
2022/06/11 04:56:04;;;;;;;17.90;5.43;;;15.90;99.90;;;;;;5047860;28;20055;-69
2022/06/11 04:58:30;;;;;;;18.27;8.32;;;15.90;99.90;;;;;;5066662;28;20101;-68
2022/06/11 05:00:56;;;;;;;23.60;9.50;;;15.90;99.90;;;;;;5066279;28;20036;-71
2022/06/11 05:03:22;;;;;;;22.25;12.38;;;15.40;99.90;;;;;;5066200;28;20100;-74
2022/06/11 05:05:48;;;;;;;26.40;13.50;;;15.90;99.90;;;;;;5033010;28;20048;-69
2022/06/11 05:08:15;;;;;;;22.55;12.90;;;16.00;99.90;;;;;;5064388;28;20485;-73
2022/06/11 05:10:42;;;;;;;20.05;12.20;;;16.00;99.90;;;;;;5062498;28;20515;-68
2022/06/11 05:13:10;;;;;;;27.17;13.32;;;16.10;99.90;;;;;;5063941;28;20426;-69
2022/06/11 05:15:44;;;;;;;25.80;14.38;;;16.10;99.90;;;;;;5048609;28;20033;-69
2022/06/11 05:18:10;;;;;;;22.90;12.68;;;16.10;99.90;;;;;;5064677;28;20067;-69
2022/06/11 05:20:36;;;;;;;20.50;11.77;;;16.10;99.90;;;;;;5065889;28;20044;-68
2022/06/11 05:23:02;;;;;;;18.02;11.20;;;16.20;99.90;;;;;;5066813;28;20047;-70
2022/06/11 05:25:29;;;;;;;15.75;8.32;;;16.20;99.90;;;;;;5049908;28;20048;-68
2022/06/11 05:27:55;;;;;;;15.55;8.82;;;16.20;99.90;;;;;;5063429;28;20048;-68
2022/06/11 05:30:30;;;;;;;19.40;7.90;;;16.20;99.90;;;;;;5048639;28;20036;-69
2022/06/11 05:32:56;;;;;;;13.75;7.53;;;16.20;99.90;;;;;;5049243;28;20147;-70
2022/06/11 05:35:25;;;;;;;14.73;7.13;;;16.30;99.90;;;;;;5029467;28;20045;-72
2022/06/11 05:37:53;;;;;;;18.27;6.07;;;16.40;99.90;;;;;;5064376;28;20567;-68
2022/06/11 05:40:23;;;;;;;16.45;6.07;;;16.40;99.90;;;;;;5046807;28;20044;-70
2022/06/11 05:42:50;;;;;;;14.30;6.28;;;16.40;99.90;;;;;;5067838;28;20052;-68
2022/06/11 05:45:18;;;;;;;14.35;5.85;;;16.50;99.90;;;;;;5070711;28;20076;-69
2022/06/11 05:47:46;;;;;;;15.57;5.80;;;16.50;99.90;;;;;;5048727;28;20305;-69
2022/06/11 05:50:16;;;;;;;13.23;5.30;;;16.60;99.90;;;;;;5071436;28;20082;-68
2022/06/11 05:52:45;;;;;;;15.13;5.38;;;16.60;99.90;;;;;;5065204;28;20112;-67
2022/06/11 05:55:20;;;;;;;17.75;5.40;;;16.70;99.90;;;;;;5073944;28;20036;-70
2022/06/11 05:57:49;;;;;;;15.70;6.18;;;16.70;99.90;;;;;;5067774;28;20129;-69
2022/06/11 06:00:17;;;;;;;19.23;5.75;;;16.80;99.90;;;;;;5074004;28;20051;-70
2022/06/11 06:02:45;;;;;;;13.98;4.88;;;16.90;99.90;;;;;;5085811;28;20055;-69
2022/06/11 06:05:14;;;;;;;12.15;5.07;;;16.90;99.90;;;;;;5072836;28;20051;-71
2022/06/11 06:07:40;;;;;;;17.60;4.85;;;17.00;99.90;;;;;;5077474;28;20511;-69
2022/06/11 06:10:06;;;;;;;16.30;5.57;;;17.00;99.90;;;;;;5048478;28;20051;-69
2022/06/11 06:12:34;;;;;;;13.35;4.80;;;17.00;99.90;;;;;;5074689;28;20036;-70
2022/06/11 06:15:05;;;;;;;15.32;5.07;;;17.10;99.90;;;;;;5078729;28;20100;-70
2022/06/11 06:17:31;;;;;;;19.45;5.15;;;17.20;99.90;;;;;;5073137;28;20044;-70
2022/06/11 06:19:57;;;;;;;13.23;4.38;;;17.30;99.90;;;;;;5056415;28;20068;-69
2022/06/11 06:22:24;;;;;;;18.25;4.45;;;17.20;99.90;;;;;;5079647;28;20074;-70
2022/06/11 06:24:50;;;;;;;16.15;4.95;;;17.20;99.90;;;;;;5073522;28;20036;-69
2022/06/11 06:27:16;;;;;;;18.02;4.95;;;17.10;99.90;;;;;;5055580;28;20055;-68
2022/06/11 06:29:42;;;;;;;16.17;4.82;;;17.20;99.90;;;;;;5066814;28;20105;-70
2022/06/11 06:32:08;;;;;;;18.25;4.65;;;17.10;99.90;;;;;;5074422;28;20044;-68
2022/06/11 06:34:35;;;;;;;14.93;4.75;;;17.10;99.90;;;;;;5066363;28;20047;-69
2022/06/11 06:37:01;;;;;;;18.38;4.78;;;17.10;99.90;;;;;;5058794;28;20044;-69
2022/06/11 06:39:27;;;;;;;19.65;4.63;;;17.20;99.90;;;;;;5060823;28;20040;-68
2022/06/11 06:41:54;;;;;;;15.90;4.53;;;17.30;99.90;;;;;;5059626;28;20040;-69
2022/06/11 06:44:20;;;;;;;16.58;4.57;;;17.40;99.90;;;;;;5075580;28;20048;-72
2022/06/11 06:46:46;;;;;;;22.08;5.32;;;17.50;99.90;;;;;;5076880;28;20357;-70
2022/06/11 06:49:13;;;;;;;16.20;4.53;;;17.70;99.90;;;;;;5076484;28;20040;-69
2022/06/11 06:51:39;;;;;;;20.80;4.78;;;17.80;99.90;;;;;;5057320;28;20053;-69
2022/06/11 06:54:05;;;;;;;16.65;4.55;;;17.70;99.90;;;;;;5047323;28;20044;-70
2022/06/11 06:56:33;;;;;;;17.85;4.50;;;17.60;99.90;;;;;;5004664;28;20114;-70
2022/06/11 06:59:01;;;;;;;22.38;4.63;;;17.70;99.90;;;;;;5050723;28;20721;-70
2022/06/11 07:01:28;;;;;;;15.93;4.13;;;17.80;99.90;;;;;;5062356;28;20037;-70
2022/06/11 07:03:55;;;;;;;17.92;4.40;;;17.90;99.90;;;;;;5036651;28;20037;-69
2022/06/11 07:06:22;;;;;;;16.10;4.00;;;17.90;99.90;;;;;;5035262;28;20056;-69
2022/06/11 07:08:53;;;;;;;16.60;4.32;;;18.00;99.90;;;;;;5053279;28;20041;-70
2022/06/11 07:11:20;;;;;;;19.20;4.45;;;18.00;99.90;;;;;;5051633;28;20041;-68
2022/06/11 07:13:48;;;;;;;21.15;4.68;;;18.00;99.90;;;;;;5052437;28;20028;-69
2022/06/11 07:16:17;;;;;;;16.98;4.40;;;18.10;99.90;;;;;;5034003;28;20075;-71
2022/06/11 07:18:53;;;;;;;16.15;4.78;;;18.20;99.90;;;;;;5051921;28;20417;-70
2022/06/11 07:21:22;;;;;;;21.48;5.05;;;18.40;99.90;;;;;;5076568;28;20114;-71
2022/06/11 07:23:59;;;;;;;18.30;4.30;;;18.50;99.90;;;;;;5052948;28;20072;-73
2022/06/11 07:26:36;;;;;;;18.23;3.97;;;18.60;99.90;;;;;;5057444;28;20083;-69
2022/06/11 07:29:17;;;;;;;19.42;4.57;;;18.40;99.90;;;;;;5039208;28;20740;-70
2022/06/11 07:31:46;;;;;;;21.13;4.80;;;18.50;99.90;;;;;;5040000;28;20052;-69
2022/06/11 07:34:13;;;;;;;19.00;4.88;;;18.60;99.90;;;;;;5056270;28;20049;-69
2022/06/11 07:36:39;;;;;;;23.20;4.57;;;18.80;99.90;;;;;;5057009;28;20037;-70
2022/06/11 07:39:05;;;;;;;21.60;5.00;;;18.90;99.90;;;;;;5062741;28;20039;-71
2022/06/11 07:41:31;;;;;;;24.33;4.78;;;18.90;99.90;;;;;;5044144;28;20373;-70
2022/06/11 07:43:58;;;;;;;19.90;5.10;;;18.70;99.90;;;;;;5045503;28;20033;-71
2022/06/11 07:46:23;;;;;;;21.63;4.65;;;18.60;99.90;;;;;;5052526;28;20591;-72
2022/06/11 07:48:50;;;;;;;23.48;4.32;;;18.60;99.90;;;;;;5056332;28;20041;-69
2022/06/11 07:51:18;;;;;;;21.02;4.85;;;18.70;99.90;;;;;;5040308;28;20056;-69
2022/06/11 07:53:49;;;;;;;18.52;4.32;;;18.80;99.90;;;;;;5055214;28;20555;-69
2022/06/11 07:56:17;;;;;;;23.73;5.15;;;19.00;99.90;;;;;;5068183;28;20057;-70
2022/06/11 07:58:43;;;;;;;18.48;3.78;;;18.90;99.90;;;;;;5050676;28;20048;-70
2022/06/11 08:01:09;;;;;;;16.30;3.85;;;18.90;99.90;;;;;;5069682;28;20052;-69
2022/06/11 08:03:38;;;;;;;22.30;5.18;;;19.10;99.90;;;;;;5071314;28;20036;-72
2022/06/11 08:06:08;;;;;;;22.90;4.80;;;19.20;99.90;;;;;;5053328;28;20539;-70
2022/06/11 08:08:34;;;;;;;23.35;4.65;;;19.40;99.90;;;;;;5072065;28;20487;-69
2022/06/11 08:11:02;;;;;;;23.85;4.93;;;19.60;99.90;;;;;;5070715;28;20089;-69
2022/06/11 08:13:28;;;;;;;17.73;5.40;;;19.60;99.90;;;;;;5050500;28;20366;-71
2022/06/11 08:15:55;;;;;;;19.15;4.72;;;19.50;99.90;;;;;;5067482;28;20052;-69
2022/06/11 08:18:23;;;;;;;24.60;4.90;;;19.60;99.90;;;;;;5046149;28;20063;-69
2022/06/11 08:20:51;;;;;;;17.75;4.22;;;19.70;99.90;;;;;;5070501;28;20055;-70
2022/06/11 08:23:19;;;;;;;18.77;5.00;;;19.90;99.90;;;;;;5051057;28;20059;-65
2022/06/11 08:25:46;;;;;;;18.60;4.53;;;19.90;99.90;;;;;;5064160;28;20071;-67
2022/06/11 08:28:13;;;;;;;18.23;4.80;;;20.20;99.90;;;;;;5034194;28;20068;-67
2022/06/11 08:30:40;;;;;;;16.50;4.57;;;20.50;99.90;;;;;;5066298;28;20063;-67
2022/06/11 08:33:07;;;;;;;17.80;4.03;;;20.40;99.90;;;;;;5050911;28;20063;-68
2022/06/11 08:35:34;;;;;;;17.90;4.45;;;20.30;99.90;;;;;;5066436;28;20553;-67
2022/06/11 08:38:01;;;;;;;16.50;4.47;;;20.20;99.90;;;;;;5050752;28;20377;-69
2022/06/11 08:40:33;;;;;;;15.68;3.80;;;20.30;99.90;;;;;;5053038;28;20043;-67
2022/06/11 08:43:10;;;;;;;15.48;5.05;;;20.20;99.90;;;;;;5071496;28;20040;-70
2022/06/11 08:45:45;;;;;;;20.67;4.50;;;20.10;99.90;;;;;;5065833;28;20508;-71
2022/06/11 08:48:33;;;;;;;20.27;4.07;;;20.40;99.90;;;;;;5052464;28;20497;-72
2022/06/11 08:51:28;;;;;;;18.08;4.03;;;20.20;99.90;;;;;;5067208;28;20048;-72
2022/06/11 08:53:58;;;;;;;19.83;4.28;;;20.40;99.90;;;;;;5063311;28;20039;-71
2022/06/11 08:56:37;;;;;;;18.20;3.72;;;20.50;99.90;;;;;;5050345;28;20123;-72
2022/06/11 08:59:28;;;;;;;15.48;4.45;;;20.60;99.90;;;;;;5066865;28;20365;-71
2022/06/11 09:02:19;;;;;;;18.90;4.53;;;20.60;99.90;;;;;;5061749;28;20066;-72
2022/06/11 09:04:54;;;;;;;15.95;4.38;;;20.50;99.90;;;;;;5089307;28;20108;-72
2022/06/11 09:07:39;;;;;;;18.75;4.18;;;20.60;99.90;;;;;;5071618;28;20055;-73
2022/06/11 09:10:20;;;;;;;14.45;3.70;;;20.80;99.90;;;;;;5050515;28;20117;-72
2022/06/11 09:13:07;;;;;;;14.73;4.03;;;20.80;99.90;;;;;;5065502;28;20131;-71
2022/06/11 09:15:51;;;;;;;17.92;4.35;;;21.00;99.90;;;;;;5065762;28;20035;-72
2022/06/11 09:18:32;;;;;;;19.63;4.55;;;21.20;99.90;;;;;;5069310;28;20178;-72
2022/06/11 09:21:04;;;;;;;16.85;3.45;;;21.50;99.90;;;;;;5071577;28;20032;-71
2022/06/11 09:23:48;;;;;;;17.98;3.28;;;21.30;99.90;;;;;;5069255;28;20051;-73
2022/06/11 09:26:32;;;;;;;21.92;4.60;;;21.30;99.90;;;;;;5067622;28;20078;-72
2022/06/11 09:29:34;;;;;;;17.60;4.22;;;21.40;99.90;;;;;;5064526;28;20072;-73
2022/06/11 09:32:14;;;;;;;20.70;3.97;;;21.30;99.90;;;;;;5072418;28;20527;-72
2022/06/11 09:34:53;;;;;;;15.90;3.95;;;21.20;99.90;;;;;;5056494;28;20446;-73
2022/06/11 09:37:45;;;;;;;19.25;4.22;;;21.00;99.90;;;;;;5067592;28;20048;-72
2022/06/11 09:40:35;;;;;;;15.60;3.88;;;20.90;99.90;;;;;;5049962;28;20052;-72
2022/06/11 09:43:40;;;;;;;15.02;4.13;;;21.10;99.90;;;;;;5087061;28;20369;-72
2022/06/11 09:46:14;;;;;;;10.60;3.35;;;20.70;99.90;;;;;;5062924;28;20048;-72
2022/06/11 09:49:14;;;;;;;14.00;3.67;;;20.40;99.90;;;;;;5063175;28;20082;-71
2022/06/11 09:52:23;;;;;;;18.23;3.90;;;20.60;99.90;;;;;;4994956;28;20050;-72
2022/06/11 09:54:58;;;;;;;16.38;3.33;;;20.90;99.90;;;;;;5064384;28;20047;-72
2022/06/11 09:57:27;;;;;;;12.32;3.22;;;21.30;99.90;;;;;;5066115;28;20055;-75
2022/06/11 10:00:22;;;;;;;15.65;3.63;;;21.50;99.90;;;;;;5055977;28;20097;-72
2022/06/11 10:03:24;;;;;;;13.65;2.80;;;21.70;99.90;;;;;;5071109;28;20040;-72
2022/06/11 10:06:11;;;;;;;11.18;2.80;;;21.90;99.90;;;;;;5034380;28;20044;-78
2022/06/11 10:08:52;;;;;;;9.73;2.58;;;21.90;99.90;;;;;;5064764;28;20063;-74
2022/06/11 10:11:44;;;;;;;13.73;2.97;;;22.10;99.90;;;;;;5066478;28;20043;-74
2022/06/11 10:14:29;;;;;;;13.63;3.00;;;22.30;99.90;;;;;;5048430;28;20056;-74
2022/06/11 10:17:27;;;;;;;14.00;3.17;;;22.50;99.90;;;;;;5067131;28;20085;-70
2022/06/11 10:20:07;;;;;;;14.93;3.08;;;22.30;99.90;;;;;;5068662;28;20703;-75
2022/06/11 10:22:43;;;;;;;12.43;3.47;;;22.50;99.90;;;;;;5050142;28;20101;-74
2022/06/11 10:25:12;;;;;;;14.98;3.60;;;22.40;99.90;;;;;;5068579;28;20434;-76
2022/06/11 10:27:47;;;;;;;13.82;3.03;;;22.20;99.90;;;;;;5067687;28;20383;-77
2022/06/11 10:30:34;;;;;;;13.52;2.67;;;22.10;99.90;;;;;;5069798;28;20067;-75
2022/06/11 10:33:06;;;;;;;13.43;3.17;;;22.30;99.90;;;;;;5067420;28;20043;-75
2022/06/11 10:35:58;;;;;;;14.25;3.00;;;22.10;99.90;;;;;;5066953;28;20036;-73
2022/06/11 10:38:35;;;;;;;9.50;2.85;;;22.00;99.90;;;;;;5066189;28;20040;-73
2022/06/11 10:41:05;;;;;;;10.55;2.72;;;21.70;99.90;;;;;;5065582;28;20613;-73
2022/06/11 10:43:41;;;;;;;8.75;2.50;;;21.70;99.00;;;;;;5066766;28;20052;-71
2022/06/11 10:46:11;;;;;;;8.35;2.40;;;21.60;99.10;;;;;;5049089;28;20044;-74
2022/06/11 10:48:39;;;;;;;10.10;2.50;;;21.70;99.80;;;;;;5050137;28;20051;-72
2022/06/11 10:51:30;;;;;;;14.60;2.17;;;21.80;98.30;;;;;;5047113;28;20105;-74
2022/06/11 10:54:31;;;;;;;11.50;2.55;;;21.90;90.10;;;;;;5041430;28;20103;-74
2022/06/11 10:57:11;;;;;;;11.30;2.58;;;22.10;84.30;;;;;;4980984;28;20117;-74
2022/06/11 10:59:50;;;;;;;8.55;1.98;;;22.20;86.60;;;;;;5025474;28;20184;-75
2022/06/11 11:02:31;;;;;;;9.77;1.95;;;22.40;87.20;;;;;;5055025;28;20094;-72
2022/06/11 11:05:02;;;;;;;;;;;22.50;80.70;;;;;;5057578;28;20137;-73
2022/06/11 11:07:58;;;;;;;11.15;2.13;;;22.30;87.30;;;;;;5040240;28;19917;-73
2022/06/11 11:10:36;;;;;;;13.35;2.92;;;22.40;80.90;;;;;;5059466;28;20040;-73
2022/06/11 11:13:14;;;;;;;16.25;2.78;;;22.60;87.80;;;;;;5054054;28;20033;-71
2022/06/11 11:15:45;;;;;;;9.02;2.58;;;22.70;89.50;;;;;;5051862;28;20034;-70
2022/06/11 11:18:18;;;;;;;8.02;2.22;;;22.80;90.20;;;;;;5052899;28;20482;-70
2022/06/11 11:20:47;;;;;;;9.25;2.28;;;23.00;79.90;;;;;;5052676;28;20048;-72
2022/06/11 11:23:22;;;;;;;10.93;2.83;;;23.10;86.80;;;;;;5054778;28;20047;-72
2022/06/11 11:26:06;;;;;;;12.25;2.42;;;23.10;85.70;;;;;;5060205;28;20064;-73
2022/06/11 11:28:54;;;;;;;12.48;2.40;;;22.90;84.80;;;;;;5079330;28;20084;-73
2022/06/11 11:31:31;;;;;;;10.27;2.40;;;23.10;83.90;;;;;;5079468;28;20131;-73
2022/06/11 11:34:23;;;;;;;11.43;2.85;;;23.60;85.10;;;;;;5058349;28;20077;-72
2022/06/11 11:36:50;;;;;;;12.73;3.20;;;23.60;79.90;;;;;;5055806;28;20262;-71
2022/06/11 11:39:29;;;;;;;11.38;2.35;;;23.40;83.40;;;;;;5062961;28;20040;-71
2022/06/11 11:42:07;;;;;;;14.00;2.75;;;23.30;82.00;;;;;;5059633;28;20049;-71
2022/06/11 11:44:49;;;;;;;9.93;2.40;;;22.90;83.20;;;;;;5074202;28;20032;-70
2022/06/11 11:47:26;;;;;;;9.70;2.08;;;22.80;77.30;;;;;;5042968;28;20040;-70
2022/06/11 11:49:57;;;;;;;12.40;2.25;;;23.10;82.40;;;;;;5036285;28;20090;-71
2022/06/11 11:52:25;;;;;;;9.75;2.22;;;23.10;79.90;;;;;;5067053;28;20057;-70
2022/06/11 11:54:59;;;;;;;14.35;2.70;;;23.30;74.00;;;;;;5069073;28;20043;-69
2022/06/11 11:57:30;;;;;;;10.65;2.00;;;23.10;72.30;;;;;;5068357;28;20056;-71
2022/06/11 12:00:27;;;;;;;7.72;2.33;;;23.10;74.00;;;;;;5063797;28;20037;-70
2022/06/11 12:02:59;;;;;;;12.63;2.38;;;23.20;73.00;;;;;;5053582;28;20127;-72
2022/06/11 12:05:30;;;;;;;9.38;1.98;;;23.20;74.30;;;;;;5084053;28;20444;-71
2022/06/11 12:07:58;;;;;;;9.68;2.60;;;23.40;73.50;;;;;;5067175;28;20051;-71
2022/06/11 12:10:30;;;;;;;7.93;2.00;;;23.60;72.40;;;;;;5066182;28;20040;-74
2022/06/11 12:12:58;;;;;;;9.13;2.22;;;23.60;70.00;;;;;;5065218;28;20358;-75
2022/06/11 12:15:27;;;;;;;11.68;2.53;;;23.30;70.50;;;;;;5065252;28;20036;-71
2022/06/11 12:18:05;;;;;;;13.93;2.50;;;23.20;73.60;;;;;;5065430;28;20060;-71
2022/06/11 12:20:43;;;;;;;9.57;2.53;;;23.50;73.90;;;;;;5052667;28;20048;-71
2022/06/11 12:23:24;;;;;;;9.50;2.15;;;23.50;68.20;;;;;;5053622;28;20040;-71
2022/06/11 12:25:59;;;;;;;12.77;2.15;;;23.80;67.90;;;;;;5051292;28;20075;-71
2022/06/11 12:28:32;;;;;;;13.55;2.20;;;24.10;71.40;;;;;;5053547;28;20458;-71
2022/06/11 12:30:58;;;;;;;13.18;2.67;;;24.50;69.80;;;;;;5068803;28;20044;-75
2022/06/11 12:33:26;;;;;;;9.75;1.90;;;24.10;71.50;;;;;;5065640;28;20037;-73
2022/06/11 12:36:06;;;;;;;7.55;1.98;;;24.20;72.00;;;;;;5066329;28;20052;-72
2022/06/11 12:38:46;;;;;;;9.90;2.33;;;24.60;71.40;;;;;;5050105;28;20444;-72
2022/06/11 12:41:21;;;;;;;11.13;2.65;;;24.70;65.60;;;;;;5065359;28;20338;-74
2022/06/11 12:44:07;;;;;;;8.10;2.13;;;25.10;69.10;;;;;;5065959;28;21325;-73
2022/06/11 12:46:53;;;;;;;10.57;2.38;;;24.80;66.30;;;;;;5055002;28;20124;-71
2022/06/11 12:49:31;;;;;;;10.40;2.50;;;25.20;66.70;;;;;;5049207;28;20060;-72
2022/06/11 12:52:16;;;;;;;9.23;2.45;;;25.20;65.70;;;;;;5062835;28;20122;-71
2022/06/11 12:54:57;;;;;;;7.65;2.20;;;25.20;66.80;;;;;;5046981;28;20085;-73
2022/06/11 12:57:50;;;;;;;10.82;2.40;;;24.80;65.50;;;;;;5065906;28;20044;-71
2022/06/11 13:00:28;;;;;;;8.95;2.10;;;25.00;61.60;;;;;;5067157;28;20044;-73
2022/06/11 13:02:57;;;;;;;10.73;2.13;;;24.90;64.10;;;;;;5069911;28;20043;-76
2022/06/11 13:05:59;;;;;;;8.35;2.33;;;24.60;65.00;;;;;;5065798;28;20123;-72
2022/06/11 13:08:37;;;;;;;11.20;2.65;;;24.30;62.90;;;;;;5067235;28;20037;-74
2022/06/11 13:11:33;;;;;;;12.23;2.35;;;24.70;64.10;;;;;;5063505;28;20464;-73